createdAt,value
2022-08-27T00:01:23.946Z,16.80
2022-08-27T00:03:52.085Z,17.73
2022-08-27T00:06:21.315Z,15.20
2022-08-27T00:08:50.164Z,14.33
2022-08-27T00:11:19.486Z,19.30
2022-08-27T00:13:47.962Z,16.60
2022-08-27T00:16:17.961Z,18.80
2022-08-27T00:18:49.042Z,17.37
2022-08-27T00:21:18.619Z,16.87
2022-08-27T00:23:46.466Z,16.10
2022-08-27T00:26:15.591Z,17.00
2022-08-27T00:28:44.262Z,15.70
2022-08-27T00:31:12.733Z,16.13
2022-08-27T00:33:40.592Z,20.60
2022-08-27T00:36:10.958Z,17.80
2022-08-27T00:38:39.762Z,16.00
2022-08-27T00:41:09.884Z,16.13
2022-08-27T00:43:46.974Z,16.60
2022-08-27T00:46:20.927Z,16.43
2022-08-27T00:48:49.922Z,19.23
2022-08-27T00:51:21.210Z,18.10
2022-08-27T00:53:50.060Z,22.80
2022-08-27T00:56:23.047Z,22.83
2022-08-27T00:58:53.883Z,24.60
2022-08-27T01:01:24.855Z,25.53
2022-08-27T01:03:56.363Z,26.67
2022-08-27T01:06:29.418Z,26.83
2022-08-27T01:09:01.966Z,25.67
2022-08-27T01:11:30.930Z,25.20
2022-08-27T01:14:01.123Z,23.00
2022-08-27T01:16:35.576Z,31.37
2022-08-27T01:19:06.978Z,20.87
2022-08-27T01:21:45.362Z,26.67
2022-08-27T01:24:36.766Z,29.30
2022-08-27T01:27:08.116Z,28.90
2022-08-27T01:29:41.843Z,20.67
2022-08-27T01:32:15.231Z,20.77
2022-08-27T01:34:43.142Z,25.63
2022-08-27T01:37:12.264Z,26.37
2022-08-27T01:39:42.985Z,21.73
2022-08-27T01:42:16.990Z,25.00
2022-08-27T01:44:48.382Z,26.40
2022-08-27T01:47:16.926Z,23.97
2022-08-27T01:49:45.270Z,23.37
2022-08-27T01:52:14.282Z,29.20
2022-08-27T01:54:43.434Z,29.13
2022-08-27T01:57:11.462Z,29.60
2022-08-27T01:59:40.144Z,30.23
2022-08-27T02:02:09.093Z,25.03
2022-08-27T02:04:36.886Z,26.30
2022-08-27T02:07:05.534Z,28.27
2022-08-27T02:09:33.420Z,31.97
2022-08-27T02:12:05.902Z,31.50
2022-08-27T02:14:33.642Z,26.80
2022-08-27T02:17:01.437Z,22.70
2022-08-27T02:19:29.185Z,32.80
2022-08-27T02:22:00.099Z,30.10
2022-08-27T02:24:28.682Z,31.57
2022-08-27T02:26:56.453Z,30.33
2022-08-27T02:29:26.660Z,31.73
2022-08-27T02:31:54.927Z,29.40
2022-08-27T02:34:23.034Z,26.07
2022-08-27T02:36:50.735Z,26.07
2022-08-27T02:39:18.466Z,32.20
2022-08-27T02:41:46.233Z,25.50
2022-08-27T02:44:13.990Z,31.07
2022-08-27T02:46:43.302Z,21.27
2022-08-27T02:49:11.801Z,27.57
2022-08-27T02:51:39.621Z,30.87
2022-08-27T02:54:09.580Z,32.03
2022-08-27T02:56:39.230Z,29.43
2022-08-27T02:59:06.958Z,29.10
2022-08-27T03:01:34.735Z,33.60
2022-08-27T03:04:04.279Z,29.70
2022-08-27T03:06:32.030Z,32.67
2022-08-27T03:09:00.355Z,31.60
2022-08-27T03:11:28.415Z,28.77
2022-08-27T03:13:56.194Z,38.63
2022-08-27T03:16:24.389Z,37.30
2022-08-27T03:18:51.396Z,34.60
2022-08-27T03:21:22.323Z,38.13
2022-08-27T03:23:50.118Z,38.33
2022-08-27T03:26:18.418Z,30.07
2022-08-27T03:28:46.586Z,34.10
2022-08-27T03:31:17.400Z,30.50
2022-08-27T03:33:48.121Z,29.43
2022-08-27T03:36:16.094Z,31.90
2022-08-27T03:38:46.318Z,39.90
2022-08-27T03:41:15.922Z,28.30
2022-08-27T03:43:43.647Z,31.53
2022-08-27T03:46:12.324Z,28.83
2022-08-27T03:48:40.162Z,25.00
2022-08-27T03:51:09.774Z,30.70
2022-08-27T03:53:38.867Z,29.17
2022-08-27T03:56:08.609Z,32.43
2022-08-27T03:58:37.447Z,24.10
2022-08-27T04:01:08.290Z,37.93
2022-08-27T04:03:36.636Z,27.50
2022-08-27T04:06:04.721Z,26.47
2022-08-27T04:08:32.979Z,26.63
2022-08-27T04:11:00.702Z,27.13
2022-08-27T04:13:29.720Z,35.80
2022-08-27T04:15:57.867Z,54.73
2022-08-27T04:18:25.687Z,29.20
2022-08-27T04:20:53.531Z,33.53
2022-08-27T04:23:22.030Z,31.00
2022-08-27T04:25:50.009Z,33.50
2022-08-27T04:28:17.751Z,29.60
2022-08-27T04:30:47.880Z,28.23
2022-08-27T04:33:15.906Z,28.13
2022-08-27T04:35:44.070Z,26.37
2022-08-27T04:38:12.119Z,30.47
2022-08-27T04:40:54.127Z,26.00
2022-08-27T04:43:22.636Z,23.77
2022-08-27T04:45:51.732Z,25.13
2022-08-27T04:48:19.674Z,29.17
2022-08-27T04:50:48.848Z,27.83
2022-08-27T04:53:18.003Z,24.43
2022-08-27T04:55:47.526Z,28.03
2022-08-27T04:58:15.783Z,27.97
2022-08-27T05:00:44.779Z,28.40
2022-08-27T05:03:15.473Z,30.93
2022-08-27T05:05:43.616Z,23.90
2022-08-27T05:08:12.960Z,29.30
2022-08-27T05:10:42.590Z,34.17
2022-08-27T05:13:10.338Z,24.40
2022-08-27T05:15:38.596Z,29.73
2022-08-27T05:18:07.766Z,23.80
2022-08-27T05:20:44.734Z,22.10
2022-08-27T05:23:13.553Z,23.30
2022-08-27T05:25:43.351Z,25.97
2022-08-27T05:28:11.988Z,31.60
2022-08-27T05:30:42.116Z,24.90
2022-08-27T05:33:10.198Z,24.37
2022-08-27T05:35:43.141Z,21.53
2022-08-27T05:38:11.753Z,22.17
2022-08-27T05:40:41.468Z,23.03
2022-08-27T05:43:09.298Z,21.07
2022-08-27T05:45:41.640Z,20.10
2022-08-27T05:48:10.439Z,21.20
2022-08-27T05:50:38.822Z,24.10
2022-08-27T05:53:08.591Z,23.27
2022-08-27T05:55:39.105Z,19.33
2022-08-27T05:58:07.567Z,20.20
2022-08-27T06:00:52.643Z,19.60
2022-08-27T06:03:20.399Z,23.27
2022-08-27T06:05:48.230Z,23.50
2022-08-27T06:08:19.299Z,24.37
2022-08-27T06:10:47.360Z,24.03
2022-08-27T06:13:15.201Z,22.07
2022-08-27T06:15:43.043Z,17.83
2022-08-27T06:18:13.395Z,20.67
2022-08-27T06:20:41.166Z,19.70
2022-08-27T06:23:11.221Z,20.03
2022-08-27T06:25:42.831Z,22.90
2022-08-27T06:28:11.493Z,22.87
2022-08-27T06:30:39.334Z,26.30
2022-08-27T06:33:07.206Z,18.50
2022-08-27T06:35:35.400Z,19.87
2022-08-27T06:38:03.250Z,20.53
2022-08-27T06:40:31.063Z,27.43
2022-08-27T06:43:00.420Z,20.03
2022-08-27T06:45:28.347Z,18.30
2022-08-27T06:47:56.933Z,20.70
2022-08-27T06:50:27.318Z,16.47
2022-08-27T06:52:55.331Z,19.20
2022-08-27T06:55:23.046Z,23.70
2022-08-27T06:57:50.995Z,23.03
2022-08-27T07:00:20.319Z,19.20
2022-08-27T07:02:49.360Z,17.13
2022-08-27T07:05:17.410Z,20.03
2022-08-27T07:07:48.610Z,19.17
2022-08-27T07:10:16.739Z,23.47
2022-08-27T07:12:44.474Z,19.40
2022-08-27T07:15:12.724Z,21.27
2022-08-27T07:17:44.562Z,19.77
2022-08-27T07:20:13.246Z,19.27
2022-08-27T07:22:41.462Z,23.07
2022-08-27T07:25:12.496Z,19.20
2022-08-27T07:27:40.758Z,16.80
2022-08-27T07:30:11.463Z,23.60
2022-08-27T07:32:39.520Z,22.80
2022-08-27T07:35:09.687Z,19.70
2022-08-27T07:37:38.002Z,37.43
2022-08-27T07:40:08.110Z,22.40
2022-08-27T07:42:49.983Z,23.87
2022-08-27T07:45:17.938Z,19.50
2022-08-27T07:47:51.130Z,21.67
2022-08-27T07:50:21.349Z,20.17
2022-08-27T07:52:52.011Z,25.70
2022-08-27T07:55:20.477Z,24.13
2022-08-27T07:57:48.929Z,23.73
2022-08-27T08:00:19.943Z,23.20
2022-08-27T08:02:49.383Z,27.53
2022-08-27T08:05:17.183Z,22.43
2022-08-27T08:07:47.498Z,21.20
2022-08-27T08:10:15.570Z,23.73
2022-08-27T08:12:45.002Z,23.93
2022-08-27T08:15:13.386Z,27.47
2022-08-27T08:17:41.338Z,22.60
2022-08-27T08:20:27.418Z,22.30
2022-08-27T08:23:01.682Z,24.13
2022-08-27T08:25:29.499Z,30.60
2022-08-27T08:28:06.423Z,22.30
2022-08-27T08:30:35.541Z,25.13
2022-08-27T08:33:03.453Z,22.13
2022-08-27T08:35:35.148Z,25.10
2022-08-27T08:38:10.381Z,37.20
2022-08-27T08:40:41.149Z,31.83
2022-08-27T08:43:19.335Z,29.27
2022-08-27T08:45:47.464Z,30.93
2022-08-27T08:48:20.196Z,31.77
2022-08-27T08:50:54.442Z,36.70
2022-08-27T08:53:33.733Z,43.43
2022-08-27T08:56:05.753Z,36.67
2022-08-27T08:58:40.226Z,35.27
2022-08-27T09:01:10.912Z,40.97
2022-08-27T09:03:42.070Z,36.20
2022-08-27T09:06:17.603Z,37.73
2022-08-27T09:08:47.594Z,38.37
2022-08-27T09:11:22.831Z,40.03
2022-08-27T09:13:53.586Z,35.40
2022-08-27T09:16:21.514Z,33.40
2022-08-27T09:18:51.332Z,38.23
2022-08-27T09:21:29.438Z,42.37
2022-08-27T09:24:05.780Z,35.73
2022-08-27T09:26:37.441Z,34.50
2022-08-27T09:29:19.037Z,39.20
2022-08-27T09:31:49.950Z,31.43
2022-08-27T09:34:17.671Z,31.50
2022-08-27T09:36:59.908Z,35.67
2022-08-27T09:39:35.919Z,40.17
2022-08-27T09:42:04.676Z,34.93
2022-08-27T09:44:33.439Z,32.67
2022-08-27T09:47:03.590Z,32.80
2022-08-27T09:49:34.350Z,30.97
2022-08-27T09:52:02.634Z,36.50
2022-08-27T09:54:40.486Z,36.67
2022-08-27T09:57:10.042Z,34.43
2022-08-27T09:59:41.510Z,46.10
2022-08-27T10:02:16.205Z,30.83
2022-08-27T10:04:50.803Z,34.00
2022-08-27T10:07:26.848Z,25.87
2022-08-27T10:10:03.823Z,27.50
2022-08-27T10:12:37.527Z,27.67
2022-08-27T10:15:07.838Z,27.87
2022-08-27T10:17:50.591Z,23.93
2022-08-27T10:20:30.358Z,24.43
2022-08-27T10:23:12.589Z,25.33
2022-08-27T10:25:50.411Z,25.77
2022-08-27T10:28:31.705Z,28.27
2022-08-27T10:31:13.799Z,26.97
2022-08-27T10:33:54.209Z,29.80
2022-08-27T10:36:31.474Z,37.63
2022-08-27T10:39:06.222Z,29.60
2022-08-27T10:41:39.934Z,36.27
2022-08-27T10:44:25.522Z,28.13
2022-08-27T10:47:08.402Z,31.63
2022-08-27T10:49:45.587Z,24.53
2022-08-27T10:52:21.134Z,23.20
2022-08-27T10:54:57.450Z,20.13
2022-08-27T10:57:56.384Z,18.90
2022-08-27T11:00:37.115Z,17.13
2022-08-27T11:03:10.781Z,20.30
2022-08-27T11:05:45.765Z,19.53
2022-08-27T11:08:20.089Z,20.77
2022-08-27T11:10:51.563Z,19.30
2022-08-27T11:13:31.587Z,18.23
2022-08-27T11:16:02.789Z,14.93
2022-08-27T11:18:40.441Z,16.37
2022-08-27T11:21:20.413Z,12.20
2022-08-27T11:23:53.821Z,12.23
2022-08-27T11:26:21.544Z,11.40
2022-08-27T11:28:58.594Z,11.43
2022-08-27T11:31:35.082Z,15.30
2022-08-27T11:34:10.588Z,20.10
2022-08-27T11:36:54.435Z,17.73
2022-08-27T11:39:39.869Z,16.40
2022-08-27T11:42:14.468Z,16.53
2022-08-27T11:44:46.505Z,16.50
2022-08-27T11:47:19.381Z,18.20
2022-08-27T11:49:54.254Z,13.97
2022-08-27T11:52:25.907Z,10.30
2022-08-27T11:54:58.558Z,10.13
2022-08-27T11:57:31.263Z,16.47
2022-08-27T12:00:15.873Z,14.57
2022-08-27T12:02:46.004Z,13.50
2022-08-27T12:05:26.635Z,13.40
2022-08-27T12:07:54.813Z,17.80
2022-08-27T12:10:32.647Z,24.63
2022-08-27T12:13:13.619Z,26.90
2022-08-27T12:15:53.083Z,24.27
2022-08-27T12:18:41.944Z,22.80
2022-08-27T12:21:20.102Z,27.43
2022-08-27T12:24:00.105Z,20.67
2022-08-27T12:26:33.210Z,19.50
2022-08-27T12:29:31.308Z,20.20
2022-08-27T12:32:12.273Z,20.73
2022-08-27T12:34:48.116Z,19.83
2022-08-27T12:37:15.931Z,18.37
2022-08-27T12:39:49.194Z,20.00
2022-08-27T12:42:19.929Z,23.83
2022-08-27T12:44:47.723Z,22.37
2022-08-27T12:47:17.011Z,19.93
2022-08-27T12:49:53.777Z,22.00
2022-08-27T12:52:46.146Z,17.87
2022-08-27T12:55:23.698Z,21.10
2022-08-27T12:57:59.342Z,22.40
2022-08-27T13:00:36.007Z,21.77
2022-08-27T13:03:21.003Z,19.33
2022-08-27T13:05:50.794Z,25.43
2022-08-27T13:08:20.995Z,17.20
2022-08-27T13:10:49.705Z,20.17
2022-08-27T13:13:19.571Z,19.60
2022-08-27T13:15:49.695Z,19.90
2022-08-27T13:18:22.826Z,20.47
2022-08-27T13:21:00.897Z,22.57
2022-08-27T13:23:28.849Z,28.03
2022-08-27T13:26:01.226Z,22.53
2022-08-27T13:28:31.043Z,29.07
2022-08-27T13:31:00.279Z,26.53
2022-08-27T13:33:33.051Z,24.37
2022-08-27T13:36:03.590Z,30.17
2022-08-27T13:38:34.006Z,34.40
2022-08-27T13:41:05.985Z,32.70
2022-08-27T13:43:38.282Z,27.83
2022-08-27T13:46:10.131Z,36.00
2022-08-27T13:48:43.238Z,25.33
2022-08-27T13:51:12.686Z,24.47
2022-08-27T13:54:00.734Z,28.00
2022-08-27T13:56:31.426Z,43.40
2022-08-27T13:59:09.324Z,35.63
2022-08-27T14:01:43.809Z,38.80
2022-08-27T14:04:26.567Z,49.13
2022-08-27T14:06:55.775Z,34.30
2022-08-27T14:09:27.374Z,37.10
2022-08-27T14:12:05.716Z,25.60
2022-08-27T14:14:38.617Z,35.67
2022-08-27T14:17:26.785Z,28.90
2022-08-27T14:20:03.110Z,32.87
2022-08-27T14:22:34.126Z,28.37
2022-08-27T14:25:02.045Z,24.53
2022-08-27T14:27:33.503Z,25.67
2022-08-27T14:30:01.455Z,24.27
2022-08-27T14:32:29.287Z,26.30
2022-08-27T14:34:57.014Z,26.23
2022-08-27T14:37:26.284Z,26.47
2022-08-27T14:39:54.145Z,24.30
2022-08-27T14:42:22.475Z,39.57
2022-08-27T14:44:51.742Z,29.37
2022-08-27T14:47:19.950Z,23.87
2022-08-27T14:49:51.323Z,25.23
2022-08-27T14:52:19.370Z,26.37
2022-08-27T14:54:49.735Z,25.10
2022-08-27T14:57:17.858Z,22.03
2022-08-27T14:59:45.678Z,23.37
2022-08-27T15:02:14.880Z,21.77
2022-08-27T15:04:44.296Z,18.67
2022-08-27T15:07:15.757Z,22.37
2022-08-27T15:09:44.648Z,18.93
2022-08-27T15:12:21.709Z,18.70
2022-08-27T15:14:54.480Z,20.57
2022-08-27T15:17:34.181Z,19.80
2022-08-27T15:20:03.710Z,16.53
2022-08-27T15:22:34.842Z,19.90
2022-08-27T15:25:05.011Z,13.83
2022-08-27T15:27:38.390Z,20.90
2022-08-27T15:30:08.683Z,16.57
2022-08-27T15:32:39.604Z,18.20
2022-08-27T15:35:12.310Z,20.30
2022-08-27T15:37:40.481Z,15.93
2022-08-27T15:40:09.849Z,18.00
2022-08-27T15:42:39.021Z,17.13
2022-08-27T15:45:08.521Z,18.97
2022-08-27T15:47:36.367Z,19.40
2022-08-27T15:50:05.052Z,20.70
2022-08-27T15:52:40.620Z,21.33
2022-08-27T15:55:19.490Z,22.80
2022-08-27T15:57:48.663Z,21.33
2022-08-27T16:00:17.616Z,21.90
2022-08-27T16:02:46.736Z,21.77
2022-08-27T16:05:16.643Z,19.53
2022-08-27T16:07:46.889Z,21.93
2022-08-27T16:10:16.307Z,21.33
2022-08-27T16:12:48.495Z,21.33
2022-08-27T16:15:17.323Z,19.90
2022-08-27T16:17:45.572Z,19.57
2022-08-27T16:20:16.182Z,23.90
2022-08-27T16:22:44.931Z,26.50
2022-08-27T16:25:18.483Z,22.00
2022-08-27T16:27:53.043Z,20.03
2022-08-27T16:30:22.107Z,30.10
2022-08-27T16:32:52.999Z,24.87
2022-08-27T16:35:24.150Z,17.93
2022-08-27T16:37:52.992Z,17.10
2022-08-27T16:40:20.874Z,19.97
2022-08-27T16:42:54.033Z,18.50
2022-08-27T16:45:26.209Z,16.37
2022-08-27T16:48:08.004Z,22.63
2022-08-27T16:50:36.637Z,17.57
2022-08-27T16:53:06.795Z,16.50
2022-08-27T16:55:35.341Z,26.97
2022-08-27T16:58:15.915Z,18.70
2022-08-27T17:00:46.003Z,19.27
2022-08-27T17:03:14.712Z,17.67
2022-08-27T17:05:42.546Z,31.10
2022-08-27T17:08:11.941Z,20.73
2022-08-27T17:10:45.700Z,24.23
2022-08-27T17:13:16.392Z,16.27
2022-08-27T17:15:44.702Z,15.33
2022-08-27T17:18:12.868Z,20.70
2022-08-27T17:20:41.235Z,18.87
2022-08-27T17:23:16.391Z,20.43
2022-08-27T17:25:48.156Z,20.77
2022-08-27T17:28:17.386Z,19.07
2022-08-27T17:30:47.775Z,20.17
2022-08-27T17:33:23.595Z,22.67
2022-08-27T17:35:51.731Z,20.10
2022-08-27T17:38:24.295Z,22.57
2022-08-27T17:40:53.235Z,18.73
2022-08-27T17:43:25.304Z,18.53
2022-08-27T17:45:53.347Z,18.40
2022-08-27T17:48:24.796Z,16.87
2022-08-27T17:50:54.454Z,18.10
2022-08-27T17:53:22.196Z,21.00
2022-08-27T17:55:50.034Z,21.27
2022-08-27T17:58:22.268Z,25.57
2022-08-27T18:00:51.226Z,21.30
2022-08-27T18:03:20.565Z,26.57
2022-08-27T18:05:49.359Z,22.40
2022-08-27T18:08:17.343Z,27.20
2022-08-27T18:10:48.558Z,27.03
2022-08-27T18:13:16.420Z,33.43
2022-08-27T18:15:50.122Z,23.90
2022-08-27T18:18:17.839Z,25.03
2022-08-27T18:20:45.826Z,22.87
2022-08-27T18:23:14.248Z,23.63
2022-08-27T18:25:44.375Z,24.07
2022-08-27T18:28:13.801Z,24.83
2022-08-27T18:30:44.192Z,28.33
2022-08-27T18:33:14.004Z,28.27
2022-08-27T18:35:42.951Z,25.07
2022-08-27T18:38:10.823Z,26.00
2022-08-27T18:40:41.886Z,24.73
2022-08-27T18:43:09.654Z,25.50
2022-08-27T18:45:37.730Z,20.83
2022-08-27T18:48:14.116Z,23.40
2022-08-27T18:50:46.455Z,29.53
2022-08-27T18:53:16.943Z,31.77
2022-08-27T18:55:46.026Z,28.50
2022-08-27T18:58:14.227Z,25.20
2022-08-27T19:00:43.796Z,29.77
2022-08-27T19:03:15.680Z,27.90
2022-08-27T19:05:43.618Z,23.20
2022-08-27T19:08:11.493Z,29.80
2022-08-27T19:10:39.895Z,27.80
2022-08-27T19:13:07.774Z,30.13
2022-08-27T19:15:35.869Z,23.90
2022-08-27T19:18:04.425Z,25.67
2022-08-27T19:20:33.874Z,24.73
2022-08-27T19:23:02.063Z,24.10
2022-08-27T19:25:30.527Z,22.73
2022-08-27T19:27:58.372Z,25.37
2022-08-27T19:30:26.146Z,22.97
2022-08-27T19:32:57.194Z,23.33
2022-08-27T19:35:26.086Z,26.17
2022-08-27T19:37:55.184Z,27.60
2022-08-27T19:40:23.518Z,29.03
2022-08-27T19:42:51.694Z,25.60
2022-08-27T19:45:25.261Z,29.20
2022-08-27T19:47:54.046Z,22.00
2022-08-27T19:50:23.261Z,24.07
2022-08-27T19:52:52.296Z,22.30
2022-08-27T19:55:21.482Z,24.97
2022-08-27T19:57:49.391Z,26.17
2022-08-27T20:00:20.452Z,25.13
2022-08-27T20:02:50.603Z,25.70
2022-08-27T20:05:19.721Z,23.43
2022-08-27T20:07:48.604Z,24.30
2022-08-27T20:10:16.986Z,23.77
2022-08-27T20:12:47.484Z,26.20
2022-08-27T20:15:15.765Z,21.73
2022-08-27T20:17:45.277Z,28.17
2022-08-27T20:20:13.843Z,29.60
2022-08-27T20:22:42.070Z,20.23
2022-08-27T20:25:10.070Z,29.43
2022-08-27T20:27:38.532Z,24.30
2022-08-27T20:30:11.901Z,27.33
2022-08-27T20:32:39.726Z,26.43
2022-08-27T20:35:11.222Z,23.17
2022-08-27T20:37:42.165Z,24.07
2022-08-27T20:40:13.707Z,22.33
2022-08-27T20:42:41.539Z,24.13
2022-08-27T20:45:12.299Z,23.47
2022-08-27T20:47:40.867Z,23.60
2022-08-27T20:50:09.790Z,28.73
2022-08-27T20:52:39.991Z,23.63
2022-08-27T20:55:09.434Z,25.87
2022-08-27T20:57:37.405Z,21.40
2022-08-27T21:00:21.330Z,21.40
2022-08-27T21:02:50.405Z,19.83
2022-08-27T21:05:19.288Z,23.03
2022-08-27T21:07:48.674Z,28.40
2022-08-27T21:10:17.518Z,19.83
2022-08-27T21:12:45.526Z,24.60
2022-08-27T21:15:14.184Z,22.77
2022-08-27T21:17:42.025Z,22.20
2022-08-27T21:20:12.534Z,29.80
2022-08-27T21:22:41.477Z,27.30
2022-08-27T21:25:15.702Z,29.20
2022-08-27T21:27:43.522Z,25.70
2022-08-27T21:30:11.997Z,25.60
2022-08-27T21:32:39.750Z,23.93
2022-08-27T21:35:07.798Z,31.53
2022-08-27T21:37:37.701Z,21.00
2022-08-27T21:40:07.635Z,22.13
2022-08-27T21:42:35.982Z,24.10
2022-08-27T21:45:03.913Z,21.90
2022-08-27T21:47:31.607Z,20.77
2022-08-27T21:49:59.345Z,20.80
2022-08-27T21:52:27.078Z,22.90
2022-08-27T21:54:56.159Z,23.07
2022-08-27T21:57:23.883Z,20.30
2022-08-27T21:59:52.273Z,22.10
2022-08-27T22:02:39.274Z,20.77
2022-08-27T22:05:08.687Z,27.57
2022-08-27T22:07:36.572Z,22.07
2022-08-27T22:10:06.820Z,17.50
2022-08-27T22:12:34.789Z,28.47
2022-08-27T22:15:02.636Z,27.17
2022-08-27T22:17:30.373Z,23.07
2022-08-27T22:19:58.324Z,23.60
2022-08-27T22:22:30.807Z,25.50
2022-08-27T22:24:58.725Z,20.03
2022-08-27T22:27:28.212Z,23.63
2022-08-27T22:29:56.049Z,21.53
2022-08-27T22:32:23.831Z,24.23
2022-08-27T22:34:51.534Z,24.83
2022-08-27T22:37:19.298Z,25.10
2022-08-27T22:39:47.014Z,25.47
2022-08-27T22:42:17.720Z,24.33
2022-08-27T22:44:47.326Z,22.57
2022-08-27T22:47:15.262Z,20.20
2022-08-27T22:49:43.189Z,24.10
2022-08-27T22:52:11.271Z,21.80
2022-08-27T22:54:39.126Z,24.10
2022-08-27T22:57:07.106Z,26.27
2022-08-27T22:59:38.740Z,23.77
2022-08-27T23:02:09.497Z,20.30
2022-08-27T23:04:54.030Z,25.53
2022-08-27T23:07:22.719Z,23.90
2022-08-27T23:09:50.441Z,20.30
2022-08-27T23:12:19.682Z,20.90
2022-08-27T23:14:47.554Z,21.73
2022-08-27T23:17:16.886Z,22.07
2022-08-27T23:19:45.233Z,21.97
2022-08-27T23:22:13.009Z,20.03
2022-08-27T23:25:00.703Z,20.60
2022-08-27T23:27:30.556Z,25.30
2022-08-27T23:30:00.222Z,29.43
2022-08-27T23:32:30.528Z,21.53
2022-08-27T23:34:58.377Z,23.63
2022-08-27T23:37:27.179Z,26.00
2022-08-27T23:39:55.890Z,25.20
2022-08-27T23:42:24.422Z,19.03
2022-08-27T23:44:52.230Z,20.90
2022-08-27T23:47:19.962Z,18.50
2022-08-27T23:49:48.993Z,25.17
2022-08-27T23:52:16.919Z,23.87
2022-08-27T23:54:44.626Z,24.20
2022-08-27T23:57:12.449Z,22.63
2022-08-27T23:59:40.239Z,26.40
